K0S9 Airport Information

Runway Information
Runway 09 Length 3000 ft width 75 ft
Elevation 0 ft Threshold 0 ft Heading 104
Runway 27 Length 3000 ft Width 75 ft
Elevation 0 ft Threshold 850 ft Heading 337
Airport Frequencies
Type UNIC Name CTAF/UNICO Frequency 123 MHZ
Airport Navaids
Airport Weather Information & NOTAM
ADDS - METARS form results

(1107 UTC 18 October 2018)
Data provider http://aviationweather.gov/metar/data/
 
METAR text: K0S9 181055Z AUTO 00000KT 10SM CLR 01/01 A3012 RMK AO2
Conditions at: K0S9 (PORT TOWNSEND , WA, US) observed 1055 UTC 18 October 2018
Temperature: 1.0°C (34°F)
Dewpoint: 1.0°C (34°F) [RH = 100%]
Pressure (altimeter): 30.12 inches Hg (1020.1 mb)
Winds: calm
Visibility: 10 or more miles (16+ km)
Ceiling: at least 12,000 feet AGL
Clouds: sky clear below 12,000 feet AGL
Weather: automated observation with no human augmentation;
there may or may not be significant weather present at this time

METAR text: K0S9 181035Z AUTO 00000KT 1 1/2SM BR CLR 02/01 A3012 RMK AO2
Conditions at: K0S9 (PORT TOWNSEND , WA, US) observed 1035 UTC 18 October 2018
Temperature: 2.0°C (36°F)
Dewpoint: 1.0°C (34°F) [RH = 93%]
Pressure (altimeter): 30.12 inches Hg (1020.1 mb)
Winds: calm
Visibility: 1.50 miles (2.41 km)
Ceiling: at least 12,000 feet AGL
Clouds: sky clear below 12,000 feet AGL
Weather: BR  (mist)

METAR text: K0S9 181015Z AUTO 00000KT 1 1/2SM BR CLR 02/02 A3012 RMK AO2
Conditions at: K0S9 (PORT TOWNSEND , WA, US) observed 1015 UTC 18 October 2018
Temperature: 2.0°C (36°F)
Dewpoint: 2.0°C (36°F) [RH = 100%]
Pressure (altimeter): 30.12 inches Hg (1020.1 mb)
Winds: calm
Visibility: 1.50 miles (2.41 km)
Ceiling: at least 12,000 feet AGL
Clouds: sky clear below 12,000 feet AGL
Weather: BR  (mist)